Time;durP1;ratioP1;P1;durP2;ratioP2;P2;SDS_P1;SDS_P2;PMS_P1;PMS_P2;Temp;Humidity;BMP_temperature;BMP_pressure;BME280_temperature;BME280_humidity;BME280_pressure;Samples;Min_cycle;Max_cycle;Signal;HPM_P1;HPM_P2
2022/10/18 00:00:02;;;;;;;2.88;1.65;;;17.40;99.90;;;17.69;100.00;101948.22;5223855;28;20041;-55
2022/10/18 00:02:36;;;;;;;;;;;17.40;99.90;;;17.66;100.00;101942.84;5224549;28;20049;-55
2022/10/18 00:05:09;;;;;;;3.58;1.95;;;17.40;99.90;;;17.66;100.00;101937.59;5224423;28;19927;-55
2022/10/18 00:07:41;;;;;;;3.72;1.95;;;17.40;99.90;;;17.64;100.00;101937.56;5224145;28;20064;-55
2022/10/18 00:10:14;;;;;;;3.45;1.90;;;17.40;99.90;;;17.63;100.00;101936.66;5223904;28;20128;-55
2022/10/18 00:12:46;;;;;;;3.05;1.83;;;17.40;99.90;;;17.63;100.00;101941.06;5224154;28;20057;-55
2022/10/18 00:15:19;;;;;;;2.97;1.85;;;17.30;99.90;;;17.62;100.00;101936.63;5224407;28;20049;-56
2022/10/18 00:17:51;;;;;;;3.22;1.92;;;17.30;99.90;;;17.61;100.00;101945.41;5206373;28;20053;-55
2022/10/18 00:20:23;;;;;;;3.22;1.83;;;17.30;99.90;;;17.61;100.00;101945.41;5223656;28;20041;-55
2022/10/18 00:22:55;;;;;;;2.72;1.70;;;17.30;99.90;;;17.61;100.00;101943.66;5223953;28;20056;-55
2022/10/18 00:25:28;;;;;;;2.80;1.42;;;17.30;99.90;;;17.62;100.00;101940.16;5224057;28;20064;-55
2022/10/18 00:28:00;;;;;;;2.97;1.80;;;17.30;99.90;;;17.63;100.00;101936.66;5224136;28;20045;-55
2022/10/18 00:30:32;;;;;;;3.30;1.90;;;17.30;99.90;;;17.63;100.00;101939.31;5223628;28;20045;-55
2022/10/18 00:33:04;;;;;;;2.67;1.80;;;17.30;99.90;;;17.64;100.00;101932.28;5223963;28;20037;-55
2022/10/18 00:35:37;;;;;;;3.33;2.10;;;17.30;99.90;;;17.64;100.00;101930.53;5223891;28;20061;-55
2022/10/18 00:38:09;;;;;;;3.75;2.33;;;17.30;99.90;;;17.64;100.00;101933.16;5224142;28;20037;-55
2022/10/18 00:40:42;;;;;;;4.45;2.28;;;17.30;99.90;;;17.63;100.00;101926.13;5223570;28;20056;-55
2022/10/18 00:43:16;;;;;;;4.35;2.35;;;17.30;99.90;;;17.64;100.00;101922.63;5223830;28;20045;-56
2022/10/18 00:45:48;;;;;;;5.15;2.38;;;17.30;99.90;;;17.60;100.00;101915.50;5224015;28;20041;-55
2022/10/18 00:48:21;;;;;;;3.72;2.40;;;17.30;99.90;;;17.59;100.00;101913.69;5225228;28;20052;-55
2022/10/18 00:50:53;;;;;;;3.83;2.13;;;17.30;99.90;;;17.59;100.00;101916.34;5227359;28;20527;-56
2022/10/18 00:53:26;;;;;;;3.50;2.13;;;17.30;99.90;;;17.58;100.00;101914.56;5227770;28;20060;-55
2022/10/18 00:55:59;;;;;;;4.30;2.42;;;17.30;99.90;;;17.58;100.00;101919.84;5229489;28;20410;-55
2022/10/18 00:58:32;;;;;;;4.72;2.42;;;17.30;99.90;;;17.57;100.00;101915.44;5227609;28;20048;-55
2022/10/18 01:01:04;;;;;;;5.15;2.30;;;17.30;99.90;;;17.56;100.00;101923.31;5226848;28;20051;-56
2022/10/18 01:03:37;;;;;;;4.75;2.08;;;17.20;99.90;;;17.55;100.00;101921.53;5227540;28;20116;-55
2022/10/18 01:06:09;;;;;;;5.10;2.95;;;17.30;99.90;;;17.54;100.00;101914.44;5227889;28;20052;-55
2022/10/18 01:09:05;;;;;;;5.28;2.58;;;17.20;99.90;;;17.52;100.00;101911.78;5227405;28;20040;-55
2022/10/18 01:12:09;;;;;;;4.80;2.60;;;17.20;99.90;;;17.50;100.00;101909.97;5226870;28;20048;-55
2022/10/18 01:14:48;;;;;;;5.22;2.22;;;17.20;99.90;;;17.49;100.00;101905.56;5209479;28;20527;-55
2022/10/18 01:17:27;;;;;;;4.88;2.60;;;17.20;99.90;;;17.48;100.00;101899.41;5227397;28;20513;-55
2022/10/18 01:20:51;;;;;;;3.03;2.28;;;17.20;99.90;;;17.48;100.00;101903.78;5226801;28;20401;-56
2022/10/18 01:23:41;;;;;;;3.17;1.95;;;17.20;99.90;;;17.45;100.00;101893.16;5222888;28;20061;-55
2022/10/18 01:26:32;;;;;;;3.38;2.50;;;17.20;99.90;;;17.45;100.00;101891.41;5227233;28;20041;-56
2022/10/18 01:29:18;;;;;;;3.08;2.00;;;17.10;99.90;;;17.46;100.00;101889.66;5227311;28;20510;-55
2022/10/18 01:31:58;;;;;;;5.03;2.55;;;17.20;99.90;;;17.47;100.00;101894.94;5226405;28;20072;-55
2022/10/18 01:34:35;;;;;;;3.55;2.00;;;17.20;99.90;;;17.47;100.00;101905.50;5227028;28;20049;-55
2022/10/18 01:37:12;;;;;;;3.97;2.40;;;17.10;99.90;;;17.47;100.00;101902.88;5227144;28;20095;-55
2022/10/18 01:39:47;;;;;;;3.25;2.10;;;17.20;99.90;;;17.47;100.00;101907.25;5226547;28;20608;-55
2022/10/18 01:42:21;;;;;;;4.40;2.45;;;17.20;99.90;;;17.47;100.00;101917.78;5226763;28;20057;-55
2022/10/18 01:44:54;;;;;;;4.40;2.55;;;17.20;99.90;;;17.45;100.00;101915.13;5227178;28;20051;-55
2022/10/18 01:47:28;;;;;;;4.28;2.17;;;17.10;99.90;;;17.43;100.00;101906.28;5226763;28;20052;-54
2022/10/18 01:50:05;;;;;;;5.47;2.67;;;17.10;99.90;;;17.41;100.00;101902.75;5225962;28;20791;-55
2022/10/18 01:52:48;;;;;;;3.63;1.92;;;17.10;99.90;;;17.39;100.00;101899.16;5226638;28;20060;-55
2022/10/18 01:55:26;;;;;;;3.40;2.15;;;17.10;99.90;;;17.39;100.00;101906.19;5226551;28;20056;-55
2022/10/18 01:58:09;;;;;;;4.40;2.38;;;17.10;99.90;;;17.36;100.00;101907.00;5226646;28;20059;-55
2022/10/18 02:00:43;;;;;;;5.15;2.38;;;17.10;99.90;;;17.35;100.00;101907.88;5225407;28;20048;-55
2022/10/18 02:03:22;;;;;;;5.45;2.85;;;17.10;99.90;;;17.33;100.00;101909.53;5226349;28;20520;-55
2022/10/18 02:06:00;;;;;;;5.68;2.65;;;17.00;99.90;;;17.32;100.00;101908.66;5226412;28;20069;-55
2022/10/18 02:08:39;;;;;;;6.15;3.15;;;17.00;99.90;;;17.33;100.00;101906.91;5226366;28;20037;-55
2022/10/18 02:11:14;;;;;;;4.35;2.35;;;17.00;99.90;;;17.32;100.00;101902.50;5225946;28;20049;-55
2022/10/18 02:13:51;;;;;;;4.45;2.40;;;17.00;99.90;;;17.33;100.00;101894.63;5226197;28;20048;-55
2022/10/18 02:16:30;;;;;;;4.88;2.30;;;17.00;99.90;;;17.34;100.00;101890.25;5226592;28;20045;-55
2022/10/18 02:19:10;;;;;;;4.75;2.50;;;17.00;99.90;;;17.34;100.00;101884.97;5226290;28;20052;-55
2022/10/18 02:21:45;;;;;;;4.88;2.50;;;17.00;99.90;;;17.34;100.00;101891.16;5225663;28;20505;-55
2022/10/18 02:24:19;;;;;;;5.15;2.70;;;17.00;99.90;;;17.36;100.00;101904.38;5226287;28;20053;-55
2022/10/18 02:26:51;;;;;;;4.25;2.30;;;17.00;99.90;;;17.35;100.00;101898.22;5226103;28;20048;-55
2022/10/18 02:29:23;;;;;;;3.97;2.03;;;17.00;99.90;;;17.35;100.00;101892.06;5226104;28;20049;-55
2022/10/18 02:32:04;;;;;;;4.70;2.30;;;17.10;99.90;;;17.38;100.00;101880.69;5225533;28;20501;-55
2022/10/18 02:34:41;;;;;;;4.95;2.40;;;17.10;99.90;;;17.36;100.00;101894.72;5225634;28;20140;-55
2022/10/18 02:37:15;;;;;;;4.45;2.17;;;17.10;99.90;;;17.37;100.00;101892.97;5225926;28;20041;-55
2022/10/18 02:39:50;;;;;;;4.63;2.60;;;17.10;99.90;;;17.37;100.00;101890.34;5225492;28;20417;-55
2022/10/18 02:42:22;;;;;;;5.13;2.50;;;17.10;99.90;;;17.36;100.00;101900.00;5225736;28;20044;-54
2022/10/18 02:44:54;;;;;;;4.35;2.25;;;17.10;99.90;;;17.37;100.00;101900.88;5225607;28;20041;-55
2022/10/18 02:47:27;;;;;;;4.72;2.63;;;17.10;99.90;;;17.37;100.00;101900.88;5225614;28;20446;-55
2022/10/18 02:50:00;;;;;;;3.47;2.05;;;17.10;99.90;;;17.38;100.00;101897.38;5224977;28;20050;-55
2022/10/18 02:52:32;;;;;;;4.47;2.00;;;17.10;99.90;;;17.36;100.00;101894.72;5225478;28;20045;-55
2022/10/18 02:55:06;;;;;;;4.07;2.20;;;17.10;99.90;;;17.36;100.00;101896.47;5225407;28;20052;-55
2022/10/18 02:57:38;;;;;;;4.85;2.55;;;17.00;99.90;;;17.36;100.00;101893.81;5225472;28;20406;-55
2022/10/18 03:00:12;;;;;;;4.30;2.25;;;17.10;99.90;;;17.34;100.00;101899.06;5225073;28;20055;-55
2022/10/18 03:02:44;;;;;;;4.90;3.00;;;17.00;99.90;;;17.35;100.00;101907.88;5225273;28;20391;-55
2022/10/18 03:05:17;;;;;;;4.80;2.38;;;17.00;99.90;;;17.35;100.00;101907.88;5225418;28;20049;-55
2022/10/18 03:07:49;;;;;;;3.83;2.25;;;17.00;99.90;;;17.33;100.00;101909.53;5224997;28;20041;-55
2022/10/18 03:10:21;;;;;;;4.90;2.53;;;17.00;99.90;;;17.33;100.00;101914.81;5224819;28;20493;-56
2022/10/18 03:12:53;;;;;;;6.60;3.22;;;17.00;99.90;;;17.31;100.00;101921.81;5224321;28;20040;-55
2022/10/18 03:15:25;;;;;;;5.47;2.70;;;17.00;99.90;;;17.31;100.00;101920.06;5225093;28;20040;-55
2022/10/18 03:17:57;;;;;;;3.80;2.20;;;17.00;99.90;;;17.32;100.00;101913.03;5225078;28;20561;-55
2022/10/18 03:20:31;;;;;;;5.25;2.42;;;17.00;99.90;;;17.32;100.00;101927.09;5224471;28;20048;-54
2022/10/18 03:23:03;;;;;;;3.78;2.08;;;17.00;99.90;;;17.32;100.00;101924.47;5225144;28;20067;-55
2022/10/18 03:25:35;;;;;;;3.92;2.42;;;17.00;99.90;;;17.32;100.00;101928.84;5225098;28;20421;-55
2022/10/18 03:28:07;;;;;;;4.07;2.42;;;17.00;99.90;;;17.33;100.00;101925.38;5224830;28;20516;-53
2022/10/18 03:30:39;;;;;;;3.63;2.20;;;17.00;99.90;;;17.32;100.00;101924.47;5225307;28;20137;-54
2022/10/18 03:33:11;;;;;;;3.80;2.33;;;17.00;99.90;;;17.33;100.00;101928.00;5224629;28;20048;-54
2022/10/18 03:35:45;;;;;;;6.18;3.42;;;17.00;99.90;;;17.33;100.00;101925.38;5224995;28;20060;-55
2022/10/18 03:38:17;;;;;;;4.90;3.65;;;17.00;99.90;;;17.31;100.00;101933.22;5224865;28;20504;-55
2022/10/18 03:40:49;;;;;;;5.60;3.40;;;17.00;99.90;;;17.31;100.00;101927.06;5224392;28;20052;-54
2022/10/18 03:43:21;;;;;;;5.07;3.28;;;17.00;99.90;;;17.30;100.00;101928.81;5224806;28;20045;-54
2022/10/18 03:45:53;;;;;;;5.00;2.95;;;17.00;99.90;;;17.29;100.00;101919.13;5224866;28;20051;-55
2022/10/18 03:48:26;;;;;;;4.93;2.95;;;17.00;99.90;;;17.29;100.00;101928.78;5224662;28;20055;-56
2022/10/18 03:51:00;;;;;;;4.85;2.70;;;17.00;99.90;;;17.28;100.00;101924.38;5258261;22;20519;-78
2022/10/18 03:53:32;;;;;;;5.47;2.90;;;17.00;99.90;;;17.25;100.00;101917.25;5239362;28;20044;-77
2022/10/18 03:56:04;;;;;;;4.70;2.78;;;17.00;99.90;;;17.25;100.00;101900.56;5244937;28;20050;-77
2022/10/18 03:58:38;;;;;;;8.85;3.83;;;17.00;99.90;;;17.24;100.00;101901.44;5227928;28;20438;-77
2022/10/18 04:01:11;;;;;;;6.25;3.45;;;17.00;99.90;;;17.23;100.00;101897.00;5246338;28;20052;-77
2022/10/18 04:03:43;;;;;;;5.82;2.90;;;17.00;99.90;;;17.24;100.00;101904.06;5228339;28;20056;-77
2022/10/18 04:06:18;;;;;;;5.22;2.90;;;17.00;99.90;;;17.24;100.00;101906.69;5244956;28;20055;-77
2022/10/18 04:08:51;;;;;;;5.80;2.72;;;17.00;99.90;;;17.24;100.00;101904.94;5245074;28;20044;-77
2022/10/18 04:11:23;;;;;;;4.97;2.90;;;17.00;99.90;;;17.25;100.00;101903.22;5228213;28;20052;-77
2022/10/18 04:13:56;;;;;;;5.10;2.78;;;17.00;99.90;;;17.25;100.00;101903.22;5228358;28;20052;-76
2022/10/18 04:16:29;;;;;;;4.82;2.60;;;17.00;99.90;;;17.25;100.00;101900.56;5245934;28;20048;-77
2022/10/18 04:19:01;;;;;;;3.10;2.38;;;17.00;99.90;;;17.24;100.00;101901.44;5244552;28;20427;-77
2022/10/18 04:21:35;;;;;;;4.63;2.10;;;17.00;99.90;;;17.23;100.00;101902.28;5228104;28;20044;-76
2022/10/18 04:24:07;;;;;;;3.22;2.40;;;16.90;99.90;;;17.23;100.00;101904.91;5247996;28;20385;-76
2022/10/18 04:26:42;;;;;;;3.45;2.13;;;17.00;99.90;;;17.21;100.00;101903.97;5249066;28;20051;-77
2022/10/18 04:29:15;;;;;;;3.20;2.10;;;16.90;99.90;;;17.19;100.00;101910.94;5248782;28;20094;-76
2022/10/18 04:31:49;;;;;;;3.67;1.98;;;16.90;99.90;;;17.18;100.00;101904.78;5215941;28;20094;-77
2022/10/18 04:34:23;;;;;;;3.28;1.92;;;16.90;99.90;;;17.18;100.00;101903.91;5248935;28;20060;-76
2022/10/18 04:36:59;;;;;;;3.15;2.00;;;16.90;99.90;;;17.19;100.00;101908.31;5215887;28;20048;-76
2022/10/18 04:39:31;;;;;;;4.30;2.33;;;16.90;99.90;;;17.17;100.00;101908.28;5248894;28;20094;-76
2022/10/18 04:42:04;;;;;;;4.65;2.60;;;16.90;99.90;;;17.14;100.00;101908.19;5248947;28;20412;-76
2022/10/18 04:44:36;;;;;;;3.00;1.88;;;16.90;99.90;;;17.15;100.00;101920.53;5250024;28;20052;-77
2022/10/18 04:47:08;;;;;;;3.92;2.15;;;16.80;99.90;;;17.17;100.00;101928.47;5248489;28;20400;-77
2022/10/18 04:49:41;;;;;;;4.13;2.47;;;16.80;99.90;;;17.16;100.00;101927.59;5248147;28;20427;-77
2022/10/18 04:52:15;;;;;;;3.47;1.80;;;16.80;99.90;;;17.17;100.00;101926.72;5215597;28;20048;-77
2022/10/18 04:54:47;;;;;;;2.53;1.73;;;16.90;99.90;;;17.17;100.00;101923.22;5215581;28;20048;-77
2022/10/18 04:57:19;;;;;;;5.78;1.88;;;16.80;99.90;;;17.17;100.00;101917.94;5248451;28;20050;-77
2022/10/18 04:59:51;;;;;;;2.70;1.70;;;16.90;99.90;;;17.16;100.00;101918.78;5248377;28;20496;-77
2022/10/18 05:02:24;;;;;;;2.78;1.88;;;16.80;99.90;;;17.14;100.00;101921.38;5247505;28;20131;-77
2022/10/18 05:04:56;;;;;;;3.67;1.92;;;16.80;99.90;;;17.12;100.00;101916.91;5231618;28;20530;-77
2022/10/18 05:07:30;;;;;;;2.42;1.52;;;16.80;99.90;;;17.11;100.00;101928.31;5231658;28;20086;-77
2022/10/18 05:10:03;;;;;;;2.92;1.88;;;16.80;99.90;;;17.10;100.00;101932.69;5231372;28;20531;-77
2022/10/18 05:12:36;;;;;;;3.20;2.08;;;16.80;99.90;;;17.09;100.00;101934.44;5248415;28;20515;-77
2022/10/18 05:15:11;;;;;;;2.47;1.73;;;16.80;99.90;;;17.08;100.00;101929.09;5248263;28;20060;-76
2022/10/18 05:17:43;;;;;;;3.40;1.83;;;16.80;99.90;;;17.08;100.00;101932.66;5231951;28;20048;-77
2022/10/18 05:20:16;;;;;;;3.33;2.20;;;16.80;99.90;;;17.07;100.00;101936.13;5230942;28;20808;-76
2022/10/18 05:22:50;;;;;;;1.92;1.40;;;16.80;99.90;;;17.07;100.00;101929.97;5247813;28;20049;-77
2022/10/18 05:25:22;;;;;;;2.38;1.48;;;16.80;99.90;;;17.06;100.00;101936.97;5231359;28;20041;-77
2022/10/18 05:27:54;;;;;;;3.20;1.98;;;16.80;99.90;;;17.07;100.00;101940.50;5247572;28;20428;-76
2022/10/18 05:30:28;;;;;;;3.53;1.83;;;16.80;99.90;;;17.08;100.00;101939.66;5248933;28;20036;-76
2022/10/18 05:33:00;;;;;;;2.70;1.65;;;16.80;99.90;;;17.07;100.00;101944.03;5248830;28;20061;-77
2022/10/18 05:35:34;;;;;;;3.00;1.95;;;16.80;99.90;;;17.07;100.00;101938.75;5246367;28;20419;-77
2022/10/18 05:38:08;;;;;;;3.35;1.63;;;16.80;99.90;;;17.06;100.00;101936.97;5249023;28;20033;-77
2022/10/18 05:40:41;;;;;;;3.50;1.80;;;16.80;99.90;;;17.07;100.00;101944.03;5247388;28;20173;-77
2022/10/18 05:43:14;;;;;;;3.83;2.30;;;16.80;99.90;;;17.07;100.00;101944.03;5248783;28;20416;-77
2022/10/18 05:45:50;;;;;;;4.57;2.30;;;16.80;99.90;;;17.07;100.00;101944.03;5214634;28;20408;-77
2022/10/18 05:48:23;;;;;;;3.15;1.70;;;16.80;99.90;;;17.08;100.00;101950.19;5230728;28;20048;-77
2022/10/18 05:50:59;;;;;;;3.50;1.92;;;16.80;99.90;;;17.07;100.00;101938.75;5247250;28;20048;-77
2022/10/18 05:53:32;;;;;;;2.70;1.73;;;16.80;99.90;;;17.07;100.00;101944.03;5248455;28;20064;-77
2022/10/18 05:56:06;;;;;;;4.32;1.95;;;16.80;99.90;;;17.06;100.00;101947.50;5247383;28;20590;-77
2022/10/18 05:58:39;;;;;;;3.75;2.40;;;16.80;99.90;;;17.06;100.00;101958.06;5248319;28;20393;-77
2022/10/18 06:01:12;;;;;;;3.70;2.08;;;16.80;99.90;;;17.06;100.00;101951.91;5247056;28;20044;-77
2022/10/18 06:03:44;;;;;;;4.05;2.17;;;16.80;99.90;;;17.06;100.00;101963.31;5230438;28;20136;-77
2022/10/18 06:06:17;;;;;;;3.60;1.83;;;16.80;99.90;;;17.06;100.00;101962.44;5230537;28;20049;-76
2022/10/18 06:08:50;;;;;;;4.18;2.30;;;16.80;99.90;;;17.06;100.00;101967.69;5246947;28;20040;-77
2022/10/18 06:11:23;;;;;;;4.25;2.03;;;16.80;99.90;;;17.05;100.00;101961.53;5230372;28;20048;-77
2022/10/18 06:13:56;;;;;;;4.25;1.95;;;16.80;99.90;;;17.07;100.00;101965.09;5230628;28;20044;-76
2022/10/18 06:16:28;;;;;;;4.20;2.03;;;16.80;99.90;;;17.06;100.00;101965.97;5230325;28;20048;-77
2022/10/18 06:19:01;;;;;;;4.18;2.47;;;16.80;99.90;;;17.08;100.00;101971.25;5213699;28;20134;-76
2022/10/18 06:21:33;;;;;;;3.22;1.90;;;16.80;99.90;;;17.05;100.00;101966.81;5246547;28;20040;-76
2022/10/18 06:24:08;;;;;;;4.22;2.15;;;16.80;99.90;;;17.06;100.00;101965.97;5248223;28;20135;-76
2022/10/18 06:26:40;;;;;;;3.75;2.17;;;16.80;99.90;;;17.08;100.00;101966.00;5229955;28;20061;-77
2022/10/18 06:29:13;;;;;;;4.32;2.60;;;16.80;99.90;;;17.06;100.00;101963.31;5230132;28;20450;-77
2022/10/18 06:31:45;;;;;;;4.30;2.30;;;16.80;99.90;;;17.08;100.00;101960.72;5246174;28;20135;-77
2022/10/18 06:34:17;;;;;;;4.05;2.10;;;16.80;99.90;;;17.08;100.00;101958.09;5247969;28;20755;-77
2022/10/18 06:36:50;;;;;;;3.17;2.00;;;16.80;99.90;;;17.08;100.00;101959.00;5246602;28;20048;-77
2022/10/18 06:39:24;;;;;;;4.25;2.22;;;16.80;99.90;;;17.07;100.00;101965.09;5229779;28;20082;-77
2022/10/18 06:41:56;;;;;;;4.03;2.13;;;16.80;99.90;;;17.07;100.00;101970.38;5212364;28;20052;-77
2022/10/18 06:44:30;;;;;;;3.33;1.85;;;16.80;99.90;;;17.05;100.00;101958.03;5229638;28;20097;-77
2022/10/18 06:47:03;;;;;;;4.28;2.40;;;16.80;99.90;;;17.05;100.00;101969.44;5246066;28;20052;-77
2022/10/18 06:49:36;;;;;;;4.72;2.42;;;16.80;99.90;;;17.07;100.00;101969.47;5246146;28;20048;-76
2022/10/18 06:52:08;;;;;;;4.15;2.13;;;16.80;99.90;;;17.08;100.00;101972.19;5246015;28;20113;-77
2022/10/18 06:54:42;;;;;;;2.92;1.90;;;16.80;99.90;;;17.10;100.00;101982.75;5245986;28;20045;-77
2022/10/18 06:57:14;;;;;;;3.45;1.80;;;16.80;99.90;;;17.11;100.00;101983.66;5246109;28;20044;-77
2022/10/18 06:59:46;;;;;;;3.63;1.95;;;16.80;99.90;;;17.09;100.00;101983.59;5245781;28;20063;-77
2022/10/18 07:02:19;;;;;;;4.35;2.22;;;16.80;99.90;;;17.11;100.00;101988.91;5197336;28;20535;-77
2022/10/18 07:04:51;;;;;;;4.50;2.30;;;16.80;99.90;;;17.11;100.00;101983.66;5188258;28;20278;-77
2022/10/18 07:07:24;;;;;;;3.20;1.80;;;16.80;99.90;;;17.12;100.00;101988.06;5196821;28;20052;-77
2022/10/18 07:09:58;;;;;;;4.10;2.40;;;16.80;99.90;;;17.13;100.00;101990.72;5207675;28;20049;-78
2022/10/18 07:12:31;;;;;;;5.13;2.38;;;16.80;99.90;;;17.17;100.00;101996.97;5225100;28;20119;-76
2022/10/18 07:15:05;;;;;;;5.40;2.72;;;16.90;99.90;;;17.33;100.00;101994.78;5208063;28;20037;-75
2022/10/18 07:17:37;;;;;;;5.22;2.70;;;17.10;99.90;;;17.51;100.00;102004.03;5229327;28;20048;-75
2022/10/18 07:20:10;;;;;;;6.38;2.83;;;17.30;99.90;;;17.67;100.00;102006.22;5224666;28;20037;-80
2022/10/18 07:22:42;;;;;;;4.43;2.47;;;17.50;99.90;;;17.74;100.00;102002.91;5225022;28;20048;-80
2022/10/18 07:25:16;;;;;;;5.80;2.40;;;17.50;99.90;;;17.71;100.00;102008.06;5224908;28;20045;-80
2022/10/18 07:27:50;;;;;;;3.97;2.17;;;17.50;99.90;;;17.68;100.00;102015.91;5196555;28;20055;-80
2022/10/18 07:30:23;;;;;;;4.82;2.33;;;17.50;99.90;;;17.68;100.00;102018.53;5214008;28;20045;-81
2022/10/18 07:32:55;;;;;;;5.07;2.47;;;17.50;99.90;;;17.65;100.00;102021.06;5203971;28;20045;-79
2022/10/18 07:38:05;;;;;;;4.45;2.20;;;17.40;99.90;;;17.56;100.00;102024.38;5227344;28;20060;-57
2022/10/18 07:40:39;;;;;;;3.63;1.90;;;17.40;99.90;;;17.54;100.00;102031.38;5241367;28;20051;-57
2022/10/18 07:43:11;;;;;;;4.38;2.58;;;17.30;99.90;;;17.52;100.00;102027.78;5233635;28;20049;-55
2022/10/18 07:45:52;;;;;;;3.83;2.17;;;17.30;99.90;;;17.51;100.00;102040.94;5237124;28;20102;-60
2022/10/18 07:48:25;;;;;;;4.03;2.00;;;17.30;99.90;;;17.48;100.00;102041.75;5244251;28;20094;-59
2022/10/18 07:50:59;;;;;;;4.43;2.38;;;17.20;99.90;;;17.50;100.00;102047.94;5243514;28;20040;-58
2022/10/18 07:53:33;;;;;;;3.85;2.20;;;17.30;99.90;;;17.50;100.00;102049.69;5235088;28;20114;-59
2022/10/18 07:56:10;;;;;;;3.28;1.83;;;17.20;99.90;;;17.48;100.00;102051.41;5244605;28;20052;-58
2022/10/18 07:58:43;;;;;;;3.65;2.28;;;17.20;99.90;;;17.46;100.00;102059.25;5243726;28;20045;-59
2022/10/18 08:01:15;;;;;;;3.25;1.95;;;17.20;99.90;;;17.44;100.00;102053.06;5235713;28;20060;-58
2022/10/18 08:03:48;;;;;;;3.70;1.90;;;17.20;99.90;;;17.42;100.00;102057.41;5205662;28;20044;-59
2022/10/18 08:06:22;;;;;;;4.20;1.95;;;17.20;99.90;;;17.41;100.00;102063.53;5228226;28;20040;-58
2022/10/18 08:08:54;;;;;;;3.95;2.30;;;17.10;99.90;;;17.40;100.00;102074.91;5239729;28;20053;-58
2022/10/18 08:11:27;;;;;;;4.05;2.00;;;17.10;99.90;;;17.40;100.00;102069.63;5238849;28;20045;-58
2022/10/18 08:14:00;;;;;;;4.15;2.13;;;17.10;99.90;;;17.40;100.00;102077.53;5223136;28;20048;-59
2022/10/18 08:16:32;;;;;;;5.03;2.47;;;17.10;99.90;;;17.42;100.00;102077.59;5226092;28;20233;-59
2022/10/18 08:19:04;;;;;;;3.58;1.98;;;17.10;99.90;;;17.42;100.00;102067.94;5238022;28;20683;-59
2022/10/18 08:21:36;;;;;;;4.05;2.20;;;17.10;99.90;;;17.43;100.00;102053.03;5228420;28;20137;-58
2022/10/18 08:24:08;;;;;;;4.40;2.20;;;17.10;99.90;;;17.44;100.00;102066.22;5210427;28;20463;-59
2022/10/18 08:26:41;;;;;;;4.20;2.00;;;17.20;99.90;;;17.46;100.00;102066.28;5241855;28;20520;-59
2022/10/18 08:29:13;;;;;;;3.95;2.00;;;17.10;99.90;;;17.45;100.00;102065.38;5236682;28;20504;-59
2022/10/18 08:31:45;;;;;;;3.47;1.83;;;17.20;99.90;;;17.45;100.00;102062.75;5243810;28;20495;-59
2022/10/18 08:34:17;;;;;;;3.67;1.73;;;17.20;99.90;;;17.45;100.00;102068.00;5243804;28;20511;-59
2022/10/18 08:36:49;;;;;;;3.05;1.77;;;17.10;99.90;;;17.48;100.00;102072.50;5240674;28;20129;-59
2022/10/18 08:39:22;;;;;;;3.15;1.63;;;17.20;99.90;;;17.48;100.00;102067.22;5241165;28;20039;-58
2022/10/18 08:42:16;;;;;;;2.22;1.48;;;17.20;99.90;;;17.51;100.00;102078.72;5244200;28;20048;-58
2022/10/18 08:44:50;;;;;;;2.53;1.73;;;17.20;99.90;;;17.53;100.00;102077.00;5234092;28;20519;-59
2022/10/18 08:47:31;;;;;;;3.10;1.75;;;17.20;99.90;;;17.54;100.00;102088.44;5237099;28;20056;-59
2022/10/18 08:50:08;;;;;;;4.40;1.60;;;17.20;99.90;;;17.55;100.00;102088.50;5229777;28;20044;-58
2022/10/18 08:52:48;;;;;;;3.38;1.80;;;17.20;99.90;;;17.55;100.00;102099.06;5243338;28;20445;-59
2022/10/18 08:55:26;;;;;;;3.60;1.55;;;17.30;99.90;;;17.55;100.00;102101.69;5243325;28;20052;-59
2022/10/18 08:57:59;;;;;;;6.07;2.10;;;17.20;99.90;;;17.56;100.00;102102.59;5242303;28;20422;-59
2022/10/18 09:00:36;;;;;;;3.25;1.60;;;17.30;99.90;;;17.52;100.00;102106.88;5228946;28;20516;-59
2022/10/18 09:03:28;;;;;;;2.63;1.70;;;17.20;99.90;;;17.52;100.00;102101.59;5235244;28;20049;-59
2022/10/18 09:06:11;;;;;;;2.05;1.30;;;17.20;99.90;;;17.55;100.00;102108.72;5237936;28;20041;-59
2022/10/18 09:09:06;;;;;;;2.63;1.48;;;17.20;99.90;;;17.56;100.00;102108.75;5240944;28;20497;-59
2022/10/18 09:11:52;;;;;;;3.45;1.70;;;17.20;99.90;;;17.57;100.00;102115.81;5246937;28;20409;-59
2022/10/18 09:14:52;;;;;;;2.78;1.50;;;17.30;99.90;;;17.58;100.00;102112.31;5247512;28;20090;-60
2022/10/18 09:17:29;;;;;;;;;;;17.30;99.90;;;17.60;100.00;102108.00;5247989;28;20040;-60
2022/10/18 09:20:16;;;;;;;1.75;1.20;;;17.30;99.90;;;17.71;100.00;102102.09;5247868;28;19966;-64
2022/10/18 09:22:59;;;;;;;2.58;1.50;;;17.40;99.90;;;17.79;100.00;102119.03;5244939;28;20127;-59
2022/10/18 09:25:36;;;;;;;2.13;1.50;;;17.50;99.90;;;17.81;100.00;102114.72;5243964;28;20045;-56
2022/10/18 09:28:19;;;;;;;2.75;1.52;;;17.50;99.90;;;17.83;100.00;102120.91;5246702;28;20044;-57
2022/10/18 09:31:00;;;;;;;4.22;1.95;;;17.50;99.90;;;17.84;100.00;102115.66;5228399;28;20067;-57
2022/10/18 09:33:45;;;;;;;3.90;2.42;;;17.50;99.90;;;17.83;100.00;102113.88;5246455;28;20401;-57
2022/10/18 09:36:22;;;;;;;4.13;1.85;;;17.50;99.90;;;17.83;100.00;102115.63;5237841;28;20045;-57
2022/10/18 09:38:58;;;;;;;2.88;1.70;;;17.50;99.90;;;17.82;100.00;102117.38;5244601;28;20049;-57
2022/10/18 09:41:38;;;;;;;3.05;1.63;;;17.50;99.90;;;17.81;100.00;102120.00;5243118;28;20048;-58
2022/10/18 09:44:18;;;;;;;3.92;1.92;;;17.50;99.90;;;17.80;100.00;102120.81;5241513;28;20029;-57
2022/10/18 09:46:58;;;;;;;4.20;1.85;;;17.50;99.90;;;17.81;100.00;102120.00;5243772;28;20051;-59
2022/10/18 09:49:37;;;;;;;2.33;1.60;;;17.50;99.90;;;17.82;100.00;102127.94;5243379;28;20115;-57
2022/10/18 09:52:17;;;;;;;2.88;1.67;;;17.50;99.90;;;17.85;100.00;102127.13;5243566;28;20040;-57
2022/10/18 09:54:54;;;;;;;2.67;1.83;;;17.50;99.90;;;17.88;100.00;102121.94;5241606;28;20044;-56
2022/10/18 09:57:32;;;;;;;3.00;1.85;;;17.60;99.90;;;17.90;100.00;102126.38;5243888;28;20044;-57
2022/10/18 10:00:09;;;;;;;4.80;2.05;;;17.60;99.90;;;17.93;100.00;102135.22;5243952;28;20056;-56
2022/10/18 10:02:42;;;;;;;4.22;1.95;;;17.60;99.90;;;17.92;100.00;102134.31;5245937;28;20501;-56
2022/10/18 10:05:15;;;;;;;4.63;2.13;;;17.60;99.90;;;17.93;100.00;102133.50;5244635;28;20056;-57
2022/10/18 10:07:48;;;;;;;2.65;1.80;;;17.60;99.90;;;17.95;100.00;102138.81;5244239;28;20058;-57
2022/10/18 10:10:23;;;;;;;3.63;1.70;;;17.60;99.90;;;17.94;100.00;102137.91;5244901;28;20039;-58
2022/10/18 10:13:05;;;;;;;4.15;2.22;;;17.60;99.90;;;17.93;100.00;102133.50;5243849;28;20036;-57
2022/10/18 10:15:37;;;;;;;4.13;2.28;;;17.60;99.90;;;17.88;100.00;102133.38;5245846;28;20071;-57
2022/10/18 10:18:21;;;;;;;4.75;2.03;;;17.60;99.90;;;17.87;100.00;102138.63;5245915;28;20044;-58
2022/10/18 10:20:56;;;;;;;4.68;1.90;;;17.60;99.90;;;17.86;100.00;102139.44;5243408;28;20037;-58
2022/10/18 10:23:32;;;;;;;3.33;1.95;;;17.60;99.90;;;17.89;100.00;102144.81;5243744;28;20037;-57
2022/10/18 10:26:22;;;;;;;4.32;1.98;;;17.60;99.90;;;17.89;100.00;102139.53;5244259;28;20057;-57
2022/10/18 10:28:54;;;;;;;7.40;3.60;;;17.60;99.90;;;17.89;100.00;102155.38;5246095;28;20382;-54
2022/10/18 10:31:30;;;;;;;7.80;3.53;;;17.60;99.90;;;17.88;100.00;102146.56;5244029;28;20048;-55
2022/10/18 10:34:06;;;;;;;8.07;3.45;;;17.60;99.90;;;17.90;100.00;102162.41;5245237;28;20041;-53
2022/10/18 10:36:48;;;;;;;7.55;3.30;;;17.60;99.90;;;17.96;100.00;102152.03;5231257;28;20036;-57
2022/10/18 10:39:23;;;;;;;8.43;3.25;;;17.60;99.90;;;17.97;100.00;102153.81;5244839;28;20122;-58